createdAt,value
2023-04-19T00:00:44.197Z,10.22
2023-04-19T00:03:47.506Z,10.23
2023-04-19T00:06:52.101Z,9.96
2023-04-19T00:09:55.500Z,10.11
2023-04-19T00:12:58.613Z,10.07
2023-04-19T00:16:03.112Z,10.08
2023-04-19T00:19:06.060Z,10.05
2023-04-19T00:22:09.232Z,10.07
2023-04-19T00:25:12.877Z,10.08
2023-04-19T00:28:16.261Z,10.10
2023-04-19T00:31:19.200Z,10.12
2023-04-19T00:34:22.493Z,10.05
2023-04-19T00:37:25.487Z,10.00
2023-04-19T00:40:29.211Z,9.96
2023-04-19T00:43:32.099Z,9.89
2023-04-19T00:46:38.022Z,9.83
2023-04-19T00:49:41.083Z,9.71
2023-04-19T00:52:44.305Z,9.66
2023-04-19T00:55:48.380Z,9.32
2023-04-19T00:58:51.908Z,9.11
2023-04-19T01:01:54.907Z,9.01
2023-04-19T01:04:59.422Z,9.01
2023-04-19T01:08:02.718Z,9.02
2023-04-19T01:11:08.283Z,9.06
2023-04-19T01:14:12.956Z,9.03
2023-04-19T01:17:18.955Z,9.10
2023-04-19T01:20:23.172Z,8.95
2023-04-19T01:23:26.580Z,8.91
2023-04-19T01:26:29.440Z,8.88
2023-04-19T01:29:32.632Z,8.68
2023-04-19T01:32:35.562Z,8.80
2023-04-19T01:35:38.755Z,8.81
2023-04-19T01:38:43.670Z,8.89
2023-04-19T01:41:46.865Z,8.75
2023-04-19T01:44:49.866Z,8.75
2023-04-19T01:47:53.367Z,8.71
2023-04-19T01:50:56.344Z,8.67
2023-04-19T01:53:59.854Z,8.70
2023-04-19T01:57:03.914Z,8.54
2023-04-19T02:00:09.374Z,8.61
2023-04-19T02:03:17.148Z,8.48
2023-04-19T02:06:21.161Z,8.50
2023-04-19T02:09:26.803Z,8.40
2023-04-19T02:12:32.129Z,8.49
2023-04-19T02:15:37.731Z,8.48
2023-04-19T02:18:41.757Z,8.51
2023-04-19T02:21:44.700Z,8.49
2023-04-19T02:24:50.982Z,8.54
2023-04-19T02:27:54.030Z,8.52
2023-04-19T02:30:58.063Z,8.50
2023-04-19T02:34:00.960Z,8.40
2023-04-19T02:37:04.417Z,8.52
2023-04-19T02:40:08.013Z,8.49
2023-04-19T02:43:11.384Z,8.49
2023-04-19T02:46:14.633Z,8.44
2023-04-19T02:49:18.393Z,8.45
2023-04-19T02:52:21.402Z,8.41
2023-04-19T02:55:24.797Z,8.44
2023-04-19T02:58:28.589Z,8.40
2023-04-19T03:01:33.052Z,8.36
2023-04-19T03:04:37.669Z,8.31
2023-04-19T03:07:44.446Z,8.26
2023-04-19T03:10:48.564Z,8.16
2023-04-19T03:13:51.854Z,8.13
2023-04-19T03:16:55.129Z,8.06
2023-04-19T03:19:59.169Z,8.01
2023-04-19T03:23:02.555Z,7.96
2023-04-19T03:26:07.222Z,7.97
2023-04-19T03:29:11.053Z,7.85
2023-04-19T03:32:14.538Z,7.85
2023-04-19T03:35:18.566Z,7.86
2023-04-19T03:38:22.293Z,7.88
2023-04-19T03:41:27.037Z,7.82
2023-04-19T03:44:34.340Z,7.80
2023-04-19T03:47:38.129Z,7.77
2023-04-19T03:50:41.756Z,7.74
2023-04-19T03:53:47.272Z,7.79
2023-04-19T03:56:53.445Z,7.83
2023-04-19T03:59:56.893Z,7.88
2023-04-19T04:03:00.419Z,7.93
2023-04-19T04:06:04.260Z,7.95
2023-04-19T04:13:16.193Z,8.11
2023-04-19T04:16:20.586Z,8.14
2023-04-19T04:19:24.359Z,8.28
2023-04-19T04:22:28.998Z,8.32
2023-04-19T04:25:34.270Z,8.42
2023-04-19T04:28:40.576Z,8.52
2023-04-19T04:31:45.328Z,8.60
2023-04-19T04:34:49.208Z,8.60
2023-04-19T04:37:54.085Z,8.59
2023-04-19T04:40:59.476Z,8.62
2023-04-19T04:44:12.416Z,8.58
2023-04-19T04:47:17.835Z,8.57
2023-04-19T04:50:21.304Z,8.35
2023-04-19T04:53:28.583Z,8.57
2023-04-19T04:56:32.010Z,8.65
2023-04-19T04:59:36.762Z,8.68
2023-04-19T05:02:39.876Z,8.81
2023-04-19T05:05:45.112Z,8.93
2023-04-19T05:08:48.771Z,8.99
2023-04-19T05:11:52.179Z,9.10
2023-04-19T05:14:55.701Z,9.13
2023-04-19T05:17:59.683Z,9.15
2023-04-19T05:21:03.027Z,9.30
2023-04-19T05:24:06.925Z,9.28
2023-04-19T05:27:11.404Z,9.36
2023-04-19T05:30:15.357Z,9.41
2023-04-19T05:33:18.738Z,9.49
2023-04-19T05:36:22.145Z,9.62
2023-04-19T05:39:27.826Z,9.69
2023-04-19T05:42:31.165Z,9.81
2023-04-19T05:45:34.163Z,9.25
2023-04-19T05:48:37.370Z,9.42
2023-04-19T05:51:41.490Z,9.58
2023-04-19T05:54:46.338Z,9.49
2023-04-19T05:57:49.956Z,9.76
2023-04-19T06:00:53.886Z,9.75
2023-04-19T06:03:59.256Z,9.70
2023-04-19T06:07:03.203Z,9.64
2023-04-19T06:10:08.432Z,9.71
2023-04-19T06:13:11.397Z,9.55
2023-04-19T06:16:14.761Z,9.89
2023-04-19T06:19:17.747Z,10.00
2023-04-19T06:22:21.982Z,10.38
2023-04-19T06:25:24.913Z,10.04
2023-04-19T06:28:30.930Z,10.74
2023-04-19T06:31:34.106Z,10.78
2023-04-19T06:34:37.305Z,10.21
2023-04-19T06:37:40.268Z,10.82
2023-04-19T06:40:43.605Z,10.78
2023-04-19T06:43:46.697Z,11.09
2023-04-19T06:46:51.215Z,11.13
2023-04-19T06:49:54.237Z,11.21
2023-04-19T06:52:58.781Z,11.31
2023-04-19T06:56:02.929Z,11.23
2023-04-19T06:59:06.370Z,11.17
2023-04-19T07:02:09.306Z,11.33
2023-04-19T07:05:13.723Z,11.12
2023-04-19T07:08:16.762Z,10.57
2023-04-19T07:11:21.136Z,10.72
2023-04-19T07:14:25.385Z,10.55
2023-04-19T07:17:28.545Z,10.98
2023-04-19T07:20:31.828Z,10.81
2023-04-19T07:23:35.091Z,11.01
2023-04-19T07:26:38.090Z,11.23
2023-04-19T07:29:41.531Z,11.30
2023-04-19T07:32:46.322Z,11.35
2023-04-19T07:35:51.627Z,11.01
2023-04-19T07:38:56.104Z,11.42
2023-04-19T07:41:59.659Z,11.32
2023-04-19T07:45:03.324Z,11.60
2023-04-19T07:48:06.595Z,11.65
2023-04-19T07:51:13.953Z,11.92
2023-04-19T07:54:18.340Z,12.10
2023-04-19T07:57:21.520Z,12.15
2023-04-19T08:00:24.832Z,11.96
2023-04-19T08:03:28.633Z,12.40
2023-04-19T08:06:32.680Z,12.12
2023-04-19T08:09:37.979Z,12.39
2023-04-19T08:12:50.447Z,12.14
2023-04-19T08:16:18.058Z,12.39
2023-04-19T08:19:23.599Z,11.99
2023-04-19T08:22:27.209Z,12.18
2023-04-19T08:25:30.134Z,12.08
2023-04-19T08:28:33.349Z,12.10
2023-04-19T08:31:36.597Z,12.39
2023-04-19T08:34:40.729Z,12.22
2023-04-19T08:37:43.696Z,12.36
2023-04-19T08:40:52.232Z,12.82
2023-04-19T08:43:55.330Z,12.90
2023-04-19T08:47:00.196Z,12.99
2023-04-19T08:50:17.160Z,12.47
2023-04-19T08:53:29.446Z,13.11
2023-04-19T08:56:35.801Z,13.02
2023-04-19T08:59:39.632Z,13.32
2023-04-19T09:02:48.368Z,13.34
2023-04-19T09:05:52.273Z,13.54
2023-04-19T09:09:28.756Z,13.88
2023-04-19T09:12:39.097Z,14.15
2023-04-19T09:15:44.730Z,14.42
2023-04-19T09:19:08.193Z,14.10
2023-04-19T09:22:19.053Z,14.49
2023-04-19T09:25:49.332Z,14.64
2023-04-19T09:29:06.154Z,15.02
2023-04-19T09:32:09.438Z,15.01
2023-04-19T09:35:12.471Z,15.27
2023-04-19T09:38:16.486Z,15.01
2023-04-19T09:41:19.330Z,14.44
2023-04-19T09:47:30.333Z,13.98
2023-04-19T09:50:42.695Z,13.86
2023-04-19T09:53:53.850Z,13.94
2023-04-19T09:56:58.336Z,14.16
2023-04-19T10:00:04.158Z,14.27
2023-04-19T10:03:16.899Z,14.33
2023-04-19T10:09:27.381Z,14.93
2023-04-19T10:12:58.393Z,15.10
2023-04-19T10:15:59.332Z,14.81
2023-04-19T10:19:18.036Z,14.86
2023-04-19T10:22:21.194Z,15.42
2023-04-19T10:25:30.034Z,15.72
2023-04-19T10:28:36.058Z,15.55
2023-04-19T10:31:41.138Z,16.05
2023-04-19T10:34:43.999Z,15.41
2023-04-19T10:38:09.215Z,15.63
2023-04-19T10:41:15.342Z,15.58
2023-04-19T10:44:19.834Z,15.64
2023-04-19T10:47:44.858Z,15.41
2023-04-19T10:51:11.342Z,15.86
2023-04-19T10:54:38.652Z,16.19
2023-04-19T10:58:07.755Z,15.78
2023-04-19T11:01:34.753Z,15.88
2023-04-19T11:04:51.244Z,16.70
2023-04-19T11:07:54.256Z,16.96
2023-04-19T11:10:57.910Z,17.22
2023-04-19T11:14:02.684Z,17.04
2023-04-19T11:17:17.369Z,16.27
2023-04-19T11:20:23.719Z,15.79
2023-04-19T11:23:27.729Z,15.86
2023-04-19T11:26:31.500Z,16.19
2023-04-19T11:29:34.916Z,16.32
2023-04-19T11:32:38.527Z,15.85
2023-04-19T11:35:43.975Z,15.68
2023-04-19T11:38:48.553Z,15.32
2023-04-19T11:41:51.760Z,15.32
2023-04-19T11:44:56.789Z,15.23
2023-04-19T11:48:00.441Z,14.89
2023-04-19T11:51:04.965Z,14.93
2023-04-19T11:54:18.384Z,14.93
2023-04-19T11:57:31.138Z,14.99
2023-04-19T12:00:34.355Z,15.01
2023-04-19T12:03:51.270Z,15.09
2023-04-19T12:06:59.810Z,14.94
2023-04-19T12:10:11.375Z,14.85
2023-04-19T12:13:20.826Z,14.62
2023-04-19T12:16:32.278Z,14.99
2023-04-19T12:19:46.901Z,14.83
2023-04-19T12:22:51.619Z,14.98
2023-04-19T12:25:54.629Z,14.86
2023-04-19T12:29:00.935Z,15.15
2023-04-19T12:32:04.585Z,15.46
2023-04-19T12:35:08.288Z,15.21
2023-04-19T12:38:11.426Z,15.14
2023-04-19T12:41:14.682Z,15.21
2023-04-19T12:44:17.599Z,14.81
2023-04-19T12:47:20.764Z,14.51
2023-04-19T12:50:23.811Z,14.31
2023-04-19T12:53:28.402Z,14.39
2023-04-19T12:56:31.270Z,14.29
2023-04-19T12:59:36.073Z,14.34
2023-04-19T13:02:39.162Z,14.56
2023-04-19T13:05:42.365Z,14.75
2023-04-19T13:08:47.524Z,14.21
2023-04-19T13:11:52.031Z,14.14
2023-04-19T13:14:55.005Z,14.02
2023-04-19T13:17:58.307Z,14.20
2023-04-19T13:21:01.194Z,14.15
2023-04-19T13:24:04.561Z,14.04
2023-04-19T13:27:08.889Z,14.21
2023-04-19T13:30:13.099Z,14.00
2023-04-19T13:33:16.297Z,13.87
2023-04-19T13:36:19.673Z,14.47
2023-04-19T13:39:22.611Z,14.73
2023-04-19T13:42:27.432Z,14.75
2023-04-19T13:45:30.329Z,14.95
2023-04-19T13:48:35.037Z,14.96
2023-04-19T13:51:49.054Z,14.88
2023-04-19T13:54:52.936Z,14.37
2023-04-19T13:57:55.854Z,15.11
2023-04-19T14:00:59.115Z,14.66
2023-04-19T14:04:03.470Z,14.48
2023-04-19T14:07:07.437Z,14.16
2023-04-19T14:10:11.134Z,14.18
2023-04-19T14:13:14.074Z,14.49
2023-04-19T14:16:17.342Z,14.37
2023-04-19T14:19:20.264Z,14.10
2023-04-19T14:22:23.471Z,14.30
2023-04-19T14:25:27.091Z,14.15
2023-04-19T14:28:30.495Z,14.47
2023-04-19T14:31:34.560Z,14.37
2023-04-19T14:34:37.768Z,14.59
2023-04-19T14:37:40.778Z,14.69
2023-04-19T14:40:44.079Z,14.26
2023-04-19T14:43:47.072Z,14.68
2023-04-19T14:46:51.062Z,15.01
2023-04-19T14:49:54.201Z,14.91
2023-04-19T14:52:57.503Z,14.62
2023-04-19T14:56:03.917Z,14.41
2023-04-19T14:59:08.239Z,14.05
2023-04-19T15:02:13.430Z,14.14
2023-04-19T15:05:16.916Z,14.17
2023-04-19T15:08:30.184Z,13.96
2023-04-19T15:11:35.606Z,14.08
2023-04-19T15:14:39.123Z,13.99
2023-04-19T15:17:43.281Z,13.94
2023-04-19T15:20:46.327Z,13.99
2023-04-19T15:23:49.665Z,13.90
2023-04-19T15:26:52.695Z,13.66
2023-04-19T15:29:55.928Z,13.79
2023-04-19T15:32:58.909Z,13.92
2023-04-19T15:36:02.534Z,13.94
2023-04-19T15:39:05.464Z,13.86
2023-04-19T15:42:08.689Z,14.02
2023-04-19T15:45:11.860Z,13.74
2023-04-19T15:48:16.639Z,13.97
2023-04-19T15:51:19.587Z,14.02
2023-04-19T15:54:24.114Z,13.96
2023-04-19T15:57:27.138Z,13.82
2023-04-19T16:00:30.519Z,13.45
2023-04-19T16:03:34.123Z,13.49
2023-04-19T16:06:37.540Z,13.25
2023-04-19T16:09:40.769Z,13.14
2023-04-19T16:12:44.403Z,12.80
2023-04-19T16:15:47.836Z,12.78
2023-04-19T16:18:51.150Z,12.74
2023-04-19T16:21:54.473Z,12.56
2023-04-19T16:24:57.344Z,12.45
2023-04-19T16:28:00.944Z,12.61
2023-04-19T16:31:04.917Z,12.57
2023-04-19T16:34:08.113Z,12.55
2023-04-19T16:37:11.695Z,12.54
2023-04-19T16:40:15.604Z,12.63
2023-04-19T16:43:20.929Z,12.35
2023-04-19T16:46:24.716Z,12.29
2023-04-19T16:49:28.227Z,12.40
2023-04-19T16:52:32.563Z,12.38
2023-04-19T16:55:36.831Z,12.24
2023-04-19T16:58:40.809Z,12.30
2023-04-19T17:01:45.368Z,12.15
2023-04-19T17:04:48.748Z,12.33
2023-04-19T17:07:52.304Z,12.85
2023-04-19T17:10:56.260Z,13.10
2023-04-19T17:13:59.866Z,12.86
2023-04-19T17:17:03.842Z,12.42
2023-04-19T17:20:08.048Z,12.12
2023-04-19T17:23:11.865Z,11.52
2023-04-19T17:26:16.620Z,11.55
2023-04-19T17:29:22.304Z,11.48
2023-04-19T17:32:26.764Z,11.22
2023-04-19T17:35:31.785Z,11.21
2023-04-19T17:38:35.067Z,11.07
2023-04-19T17:41:39.935Z,11.02
2023-04-19T17:44:44.396Z,10.69
2023-04-19T17:47:48.765Z,10.58
2023-04-19T17:50:52.570Z,10.63
2023-04-19T17:53:57.121Z,10.61
2023-04-19T17:57:03.023Z,10.45
2023-04-19T18:00:11.034Z,10.42
2023-04-19T18:03:15.078Z,10.38
2023-04-19T18:06:21.256Z,10.28
2023-04-19T18:09:24.728Z,10.28
2023-04-19T18:12:28.887Z,10.19
2023-04-19T18:15:32.495Z,10.15
2023-04-19T18:18:37.370Z,10.15
2023-04-19T18:21:41.420Z,10.09
2023-04-19T18:24:47.612Z,10.04
2023-04-19T18:27:51.278Z,10.03
2023-04-19T18:30:56.132Z,9.81
2023-04-19T18:34:01.890Z,9.92
2023-04-19T18:37:16.620Z,9.84
2023-04-19T18:40:20.089Z,9.74
2023-04-19T18:43:24.889Z,9.72
2023-04-19T18:46:30.094Z,9.68
2023-04-19T18:49:34.996Z,9.60
2023-04-19T18:52:38.952Z,9.56
2023-04-19T18:55:47.604Z,9.51
2023-04-19T18:58:52.216Z,9.47
2023-04-19T19:01:58.649Z,9.43
2023-04-19T19:05:03.320Z,9.32
2023-04-19T19:08:08.219Z,9.30
2023-04-19T19:14:23.388Z,9.24
2023-04-19T19:17:28.946Z,9.12
2023-04-19T19:20:33.589Z,9.09
2023-04-19T19:23:42.141Z,9.06
2023-04-19T19:26:47.711Z,9.09
2023-04-19T19:29:52.112Z,8.96
2023-04-19T19:32:56.666Z,9.01
2023-04-19T19:36:00.857Z,8.94
2023-04-19T19:39:04.980Z,8.84
2023-04-19T19:42:09.970Z,8.74
2023-04-19T19:45:13.963Z,8.76
2023-04-19T19:48:17.686Z,8.77
2023-04-19T19:51:52.274Z,8.73
2023-04-19T19:54:46.066Z,8.68
2023-04-19T20:01:02.262Z,8.58
2023-04-19T20:04:07.421Z,8.51
2023-04-19T20:10:20.929Z,8.45
2023-04-19T20:13:37.622Z,8.31
2023-04-19T20:16:41.915Z,8.30
2023-04-19T20:19:46.997Z,8.28
2023-04-19T20:22:51.768Z,8.23
2023-04-19T20:25:54.682Z,8.21
2023-04-19T20:29:02.678Z,8.14
2023-04-19T20:32:11.153Z,8.12
2023-04-19T20:35:15.529Z,8.06
2023-04-19T20:38:19.314Z,7.98
2023-04-19T20:41:24.672Z,7.98
2023-04-19T20:44:29.702Z,7.93
2023-04-19T20:47:34.003Z,7.97
2023-04-19T20:50:38.004Z,7.86
2023-04-19T20:53:42.047Z,7.86
2023-04-19T20:56:45.269Z,7.83
2023-04-19T20:59:49.208Z,7.83
2023-04-19T21:02:52.233Z,7.76
2023-04-19T21:05:55.574Z,7.84
2023-04-19T21:09:00.266Z,7.76
2023-04-19T21:12:03.746Z,7.81
2023-04-19T21:15:07.663Z,7.68
2023-04-19T21:18:11.245Z,7.62
2023-04-19T21:21:14.101Z,7.71
2023-04-19T21:24:17.306Z,7.67
2023-04-19T21:27:20.239Z,7.69
2023-04-19T21:30:23.899Z,7.55
2023-04-19T21:33:26.819Z,7.52
2023-04-19T21:36:30.036Z,7.46
2023-04-19T21:39:33.184Z,7.40
2023-04-19T21:42:36.671Z,7.44
2023-04-19T21:45:39.616Z,7.36
2023-04-19T21:48:42.958Z,7.40
2023-04-19T21:51:46.134Z,7.48
2023-04-19T21:54:49.902Z,7.46
2023-04-19T21:57:52.914Z,7.46
2023-04-19T22:00:56.366Z,7.33
2023-04-19T22:03:59.940Z,7.30
2023-04-19T22:07:03.223Z,7.35
2023-04-19T22:10:07.619Z,7.26
2023-04-19T22:13:10.643Z,7.31
2023-04-19T22:16:15.124Z,7.33
2023-04-19T22:19:18.537Z,7.30
2023-04-19T22:22:21.957Z,7.39
2023-04-19T22:25:25.187Z,7.37
2023-04-19T22:28:28.323Z,7.28
2023-04-19T22:31:31.752Z,7.20
2023-04-19T22:34:36.672Z,7.21
2023-04-19T22:37:39.571Z,7.31
2023-04-19T22:40:43.403Z,7.29
2023-04-19T22:43:46.476Z,7.27
2023-04-19T22:46:49.729Z,7.12
2023-04-19T22:49:53.154Z,7.09
2023-04-19T22:52:56.527Z,6.97
2023-04-19T22:55:59.410Z,6.94
2023-04-19T22:59:02.635Z,6.85
2023-04-19T23:02:05.851Z,6.80
2023-04-19T23:05:09.352Z,6.89
2023-04-19T23:08:13.005Z,6.86
2023-04-19T23:11:16.407Z,6.81
2023-04-19T23:14:19.439Z,6.78
2023-04-19T23:17:23.963Z,6.81
2023-04-19T23:20:26.849Z,6.84
2023-04-19T23:23:31.258Z,6.78
2023-04-19T23:26:34.200Z,6.74
2023-04-19T23:29:37.463Z,6.71
2023-04-19T23:32:40.347Z,6.73
2023-04-19T23:35:43.523Z,6.73
2023-04-19T23:38:46.271Z,6.73
2023-04-19T23:41:49.404Z,6.80
2023-04-19T23:44:55.845Z,6.88
2023-04-19T23:47:59.177Z,6.87
2023-04-19T23:51:02.183Z,6.99
2023-04-19T23:54:05.815Z,7.11
2023-04-19T23:57:08.675Z,7.13
